Time;durP1;ratioP1;P1;durP2;ratioP2;P2;SDS_P1;SDS_P2;PMS_P1;PMS_P2;Temp;Humidity;BMP_temperature;BMP_pressure;BME280_temperature;BME280_humidity;BME280_pressure;Samples;Min_cycle;Max_cycle;Signal;HPM_P1;HPM_P2
2022/08/25 00:01:20;;;;;;;2.95;2.35;;;;;;;;;;5006933;28;20088;-77
2022/08/25 00:03:47;;;;;;;2.60;2.40;;;;;;;;;;5007475;28;20030;-79
2022/08/25 00:06:13;;;;;;;3.13;2.78;;;;;;;;;;5006608;28;20051;-78
2022/08/25 00:08:40;;;;;;;4.32;2.65;;;;;;;;;;5008451;28;20053;-79
2022/08/25 00:11:11;;;;;;;4.85;2.70;;;;;;;;;;5005316;28;20052;-79
2022/08/25 00:13:39;;;;;;;5.95;2.90;;;;;;;;;;5007891;28;20029;-78
2022/08/25 00:16:05;;;;;;;4.82;2.50;;;;;;;;;;5007646;28;20389;-78
2022/08/25 00:18:32;;;;;;;3.75;2.50;;;;;;;;;;5003561;28;20029;-78
2022/08/25 00:20:58;;;;;;;5.20;2.83;;;;;;;;;;5005112;28;20054;-76
2022/08/25 00:23:24;;;;;;;3.28;2.40;;;;;;;;;;5008718;28;20254;-79
2022/08/25 00:25:52;;;;;;;3.97;2.70;;;;;;;;;;5008779;28;20128;-75
2022/08/25 00:28:18;;;;;;;5.38;2.15;;;;;;;;;;5008711;28;20036;-75
2022/08/25 00:30:44;;;;;;;3.08;2.40;;;;;;;;;;5009979;28;20034;-79
2022/08/25 00:33:10;;;;;;;4.55;3.10;;;;;;;;;;5005045;28;20022;-78
2022/08/25 00:35:36;;;;;;;5.00;2.83;;;;;;;;;;5008457;28;20036;-79
2022/08/25 00:38:03;;;;;;;5.80;3.33;;;;;;;;;;5002495;28;20022;-79
2022/08/25 00:40:29;;;;;;;4.93;3.25;;;;;;;;;;5002632;28;20037;-79
2022/08/25 00:42:55;;;;;;;4.05;2.75;;;;;;;;;;5001250;28;20088;-78
2022/08/25 00:45:22;;;;;;;2.65;2.45;;;;;;;;;;5001075;28;20609;-80
2022/08/25 00:47:48;;;;;;;6.72;2.53;;;;;;;;;;4999561;28;20120;-78
2022/08/25 00:50:16;;;;;;;3.67;2.30;;;;;;;;;;4997492;28;20034;-80
2022/08/25 00:52:43;;;;;;;5.13;2.60;;;;;;;;;;5000894;28;20139;-77
2022/08/25 00:55:16;;;;;;;3.60;2.35;;;;;;;;;;5012708;28;20087;-80
2022/08/25 00:57:43;;;;;;;5.30;2.33;;;;;;;;;;5001961;28;20032;-80
2022/08/25 01:00:23;;;;;;;3.72;2.28;;;;;;;;;;4998898;28;20065;-79
2022/08/25 01:02:49;;;;;;;4.97;2.35;;;;;;;;;;4995936;28;20153;-79
2022/08/25 01:05:17;;;;;;;5.18;2.10;;;;;;;;;;4997965;28;20032;-79
2022/08/25 01:07:43;;;;;;;3.20;2.53;;;;;;;;;;4997313;28;20033;-78
2022/08/25 01:10:10;;;;;;;4.65;2.28;;;;;;;;;;4995963;28;20022;-80
2022/08/25 01:12:37;;;;;;;3.42;2.25;;;;;;;;;;4999821;28;20597;-79
2022/08/25 01:15:04;;;;;;;2.78;2.03;;;;;;;;;;4992570;28;20509;-79
2022/08/25 01:17:35;;;;;;;3.95;2.20;;;;;;;;;;4992197;28;20085;-80
2022/08/25 01:20:01;;;;;;;3.67;2.13;;;;;;;;;;4998666;28;20046;-77
2022/08/25 01:22:28;;;;;;;6.07;2.10;;;;;;;;;;4996716;28;20041;-80
2022/08/25 01:25:01;;;;;;;5.35;2.15;;;;;;;;;;5001358;28;20032;-79
2022/08/25 01:27:27;;;;;;;3.03;2.17;;;;;;;;;;4997473;28;20030;-80
2022/08/25 01:29:56;;;;;;;2.72;2.03;;;;;;;;;;5000994;28;20025;-75
2022/08/25 01:32:23;;;;;;;4.28;2.13;;;;;;;;;;4999077;28;20034;-76
2022/08/25 01:34:49;;;;;;;3.58;1.95;;;;;;;;;;4998928;28;20026;-78
2022/08/25 01:37:15;;;;;;;4.22;2.20;;;;;;;;;;4999534;28;20155;-79
2022/08/25 01:39:42;;;;;;;3.58;1.80;;;;;;;;;;5000132;28;20695;-76
2022/08/25 01:42:12;;;;;;;5.93;2.72;;;;;;;;;;5001488;28;20088;-80
2022/08/25 01:44:39;;;;;;;17.88;10.90;;;;;;;;;;4996166;28;20026;-79
2022/08/25 01:47:06;;;;;;;6.07;2.50;;;;;;;;;;4998246;28;20026;-78
2022/08/25 01:49:32;;;;;;;4.85;2.10;;;;;;;;;;4998395;28;20025;-80
2022/08/25 01:52:06;;;;;;;6.15;2.45;;;;;;;;;;4998935;28;20041;-76
2022/08/25 01:54:32;;;;;;;3.50;2.15;;;;;;;;;;5001786;28;20138;-78
2022/08/25 01:56:58;;;;;;;5.07;3.10;;;;;;;;;;4999750;28;20041;-79
2022/08/25 01:59:25;;;;;;;5.65;2.15;;;;;;;;;;4999130;28;20018;-79
2022/08/25 02:01:52;;;;;;;3.00;2.00;;;;;;;;;;4997333;28;20089;-79
2022/08/25 02:04:18;;;;;;;6.70;2.33;;;;;;;;;;5003223;28;20068;-79
2022/08/25 02:06:44;;;;;;;5.45;2.13;;;;;;;;;;4995425;28;20105;-77
2022/08/25 02:09:12;;;;;;;8.90;5.32;;;;;;;;;;5000162;28;20479;-78
2022/08/25 02:11:39;;;;;;;8.05;5.63;;;;;;;;;;4995195;28;20038;-78
2022/08/25 02:14:06;;;;;;;5.65;3.33;;;;;;;;;;4999975;28;20028;-79
2022/08/25 02:16:34;;;;;;;3.78;1.92;;;;;;;;;;4995584;28;20041;-79
2022/08/25 02:19:00;;;;;;;3.40;2.22;;;;;;;;;;4997177;28;20483;-79
2022/08/25 02:21:27;;;;;;;3.92;2.10;;;;;;;;;;4999014;28;20137;-78
2022/08/25 02:23:53;;;;;;;4.40;2.10;;;;;;;;;;4999822;28;20014;-78
2022/08/25 02:26:19;;;;;;;5.85;2.13;;;;;;;;;;5002488;28;20033;-79
2022/08/25 02:28:46;;;;;;;3.35;2.25;;;;;;;;;;4999497;28;20106;-78
2022/08/25 02:31:13;;;;;;;3.75;1.88;;;;;;;;;;5003845;28;20533;-78
2022/08/25 02:33:39;;;;;;;4.47;2.10;;;;;;;;;;5000369;28;20029;-79
2022/08/25 02:36:06;;;;;;;2.08;1.88;;;;;;;;;;4999462;28;20028;-78
2022/08/25 02:38:32;;;;;;;3.35;1.90;;;;;;;;;;5003848;28;20126;-77
2022/08/25 02:40:59;;;;;;;3.83;1.90;;;;;;;;;;4999349;28;20026;-75
2022/08/25 02:43:26;;;;;;;3.13;1.95;;;;;;;;;;5000545;28;20061;-78
2022/08/25 02:45:53;;;;;;;3.42;1.92;;;;;;;;;;4997191;28;20030;-79
2022/08/25 02:48:19;;;;;;;2.65;1.92;;;;;;;;;;4997866;28;20028;-78
2022/08/25 02:50:51;;;;;;;3.25;1.85;;;;;;;;;;4980830;28;20494;-78
2022/08/25 02:53:17;;;;;;;3.72;2.00;;;;;;;;;;4997557;28;20886;-77
2022/08/25 02:55:43;;;;;;;4.10;2.10;;;;;;;;;;4985821;28;20025;-77
2022/08/25 02:58:09;;;;;;;4.20;2.08;;;;;;;;;;4978204;28;20901;-77
2022/08/25 03:00:36;;;;;;;3.55;1.75;;;;;;;;;;4999619;28;20036;-77
2022/08/25 03:03:02;;;;;;;2.50;1.95;;;;;;;;;;5002754;28;20040;-73
2022/08/25 03:05:28;;;;;;;2.90;2.13;;;;;;;;;;5002323;28;20026;-76
2022/08/25 03:07:55;;;;;;;3.42;1.90;;;;;;;;;;4985808;28;20088;-73
2022/08/25 03:10:21;;;;;;;4.22;2.10;;;;;;;;;;5001789;28;20026;-78
2022/08/25 03:12:47;;;;;;;6.82;2.10;;;;;;;;;;5002933;28;20486;-76
2022/08/25 03:15:15;;;;;;;3.92;2.08;;;;;;;;;;4984047;28;20085;-77
2022/08/25 03:17:42;;;;;;;3.65;1.85;;;;;;;;;;4998088;28;20104;-76
2022/08/25 03:20:08;;;;;;;2.40;2.00;;;;;;;;;;5000025;28;20034;-78
2022/08/25 03:22:35;;;;;;;3.70;2.10;;;;;;;;;;5000575;28;20029;-74
2022/08/25 03:27:48;;;;;;;3.05;1.95;;;;;;;;;;4998756;28;20096;-77
2022/08/25 03:30:14;;;;;;;4.38;1.70;;;;;;;;;;4996962;28;20173;-76
2022/08/25 03:32:41;;;;;;;2.65;1.80;;;;;;;;;;4995093;28;20472;-76
2022/08/25 03:35:07;;;;;;;3.97;2.08;;;;;;;;;;4995739;28;20018;-78
2022/08/25 03:37:34;;;;;;;4.07;1.95;;;;;;;;;;5000530;28;20063;-76
2022/08/25 03:40:01;;;;;;;3.17;2.20;;;;;;;;;;4996211;28;20585;-80
2022/08/25 03:42:27;;;;;;;3.42;1.83;;;;;;;;;;4992958;28;20064;-77
2022/08/25 03:44:53;;;;;;;2.22;1.95;;;;;;;;;;4997684;28;20026;-74
2022/08/25 03:47:20;;;;;;;3.80;2.10;;;;;;;;;;4994453;28;20053;-77
2022/08/25 03:49:46;;;;;;;6.55;2.47;;;;;;;;;;4999945;28;20643;-79
2022/08/25 03:52:12;;;;;;;4.35;2.17;;;;;;;;;;4998443;28;20034;-77
2022/08/25 03:54:39;;;;;;;5.95;2.40;;;;;;;;;;4998807;28;20021;-77
2022/08/25 03:57:05;;;;;;;3.90;1.80;;;;;;;;;;4997603;28;20033;-75
2022/08/25 03:59:31;;;;;;;3.03;1.95;;;;;;;;;;4996449;28;20033;-78
2022/08/25 04:01:57;;;;;;;4.50;2.47;;;;;;;;;;4985038;28;20026;-74
2022/08/25 04:04:24;;;;;;;4.05;2.08;;;;;;;;;;4991487;28;20042;-78
2022/08/25 04:06:51;;;;;;;6.05;2.33;;;;;;;;;;4976956;28;20038;-78
2022/08/25 04:09:17;;;;;;;2.55;2.20;;;;;;;;;;4992538;28;20599;-78
2022/08/25 04:11:46;;;;;;;2.78;2.00;;;;;;;;;;4997218;28;20501;-74
2022/08/25 04:14:13;;;;;;;6.43;2.40;;;;;;;;;;4990469;28;20073;-74
2022/08/25 04:16:39;;;;;;;8.48;2.63;;;;;;;;;;4994852;28;20413;-74
2022/08/25 04:19:08;;;;;;;3.25;2.13;;;;;;;;;;4994236;28;20053;-74
2022/08/25 04:21:34;;;;;;;2.50;2.28;;;;;;;;;;4993246;28;20053;-76
2022/08/25 04:24:00;;;;;;;6.15;2.47;;;;;;;;;;4992050;28;20026;-73
2022/08/25 04:26:32;;;;;;;4.68;2.65;;;;;;;;;;4991973;28;20026;-73
2022/08/25 04:28:58;;;;;;;3.35;2.13;;;;;;;;;;4998202;28;20848;-73
2022/08/25 04:31:25;;;;;;;2.80;2.08;;;;;;;;;;4994461;28;20065;-73
2022/08/25 04:33:51;;;;;;;4.07;2.40;;;;;;;;;;4994783;28;20058;-73
2022/08/25 04:36:18;;;;;;;3.17;2.17;;;;;;;;;;4997385;28;20099;-73
2022/08/25 04:38:45;;;;;;;5.20;2.30;;;;;;;;;;4993536;28;20024;-73
2022/08/25 04:41:12;;;;;;;5.70;2.15;;;;;;;;;;4991688;28;20034;-73
2022/08/25 04:43:39;;;;;;;4.60;2.80;;;;;;;;;;4992078;28;20031;-78
2022/08/25 04:46:07;;;;;;;5.07;2.80;;;;;;;;;;4982279;28;20125;-78
2022/08/25 04:48:34;;;;;;;9.48;2.90;;;;;;;;;;4994137;28;20583;-77
2022/08/25 04:51:10;;;;;;;4.93;2.78;;;;;;;;;;4994674;28;20120;-74
2022/08/25 04:53:37;;;;;;;3.60;2.53;;;;;;;;;;4994571;28;20034;-74
2022/08/25 04:56:06;;;;;;;3.67;2.65;;;;;;;;;;5001168;28;20560;-74
2022/08/25 04:58:32;;;;;;;5.88;2.88;;;;;;;;;;5001673;28;20013;-74
2022/08/25 05:01:02;;;;;;;5.60;2.80;;;;;;;;;;4999500;28;20036;-74
2022/08/25 05:03:29;;;;;;;4.03;2.50;;;;;;;;;;4997573;28;20410;-73
2022/08/25 05:05:56;;;;;;;5.13;2.42;;;;;;;;;;4995697;28;20025;-74
2022/08/25 05:08:22;;;;;;;4.13;2.10;;;;;;;;;;4995630;28;20034;-74
2022/08/25 05:10:49;;;;;;;3.30;2.40;;;;;;;;;;4995128;28;20078;-74
2022/08/25 05:13:15;;;;;;;3.58;2.70;;;;;;;;;;4998816;28;20028;-74
2022/08/25 05:15:51;;;;;;;3.83;3.25;;;;;;;;;;4999408;28;20018;-73
2022/08/25 05:18:18;;;;;;;3.55;2.60;;;;;;;;;;5000322;28;20029;-74
2022/08/25 05:20:44;;;;;;;4.82;2.70;;;;;;;;;;4998775;28;20309;-73
2022/08/25 05:23:10;;;;;;;4.50;2.80;;;;;;;;;;4999853;28;20153;-74
2022/08/25 05:25:37;;;;;;;5.43;3.22;;;;;;;;;;4999135;28;20037;-75
2022/08/25 05:28:04;;;;;;;3.85;2.70;;;;;;;;;;4998566;28;20057;-74
2022/08/25 05:30:30;;;;;;;3.72;3.00;;;;;;;;;;4998154;28;20057;-74
2022/08/25 05:32:56;;;;;;;4.35;3.08;;;;;;;;;;4995886;28;20052;-74
2022/08/25 05:35:22;;;;;;;2.83;2.50;;;;;;;;;;4994331;28;20026;-75
2022/08/25 05:37:49;;;;;;;4.43;3.00;;;;;;;;;;4997821;28;20030;-74
2022/08/25 05:40:15;;;;;;;3.72;2.70;;;;;;;;;;4994096;28;20022;-76
2022/08/25 05:42:41;;;;;;;4.10;3.15;;;;;;;;;;4999396;28;20036;-76
2022/08/25 05:45:08;;;;;;;4.28;2.63;;;;;;;;;;4997535;28;20030;-77
2022/08/25 05:47:35;;;;;;;4.82;2.83;;;;;;;;;;4997214;28;20116;-75
2022/08/25 05:50:01;;;;;;;5.43;2.83;;;;;;;;;;4998578;28;20639;-77
2022/08/25 05:52:28;;;;;;;3.65;2.92;;;;;;;;;;4996919;28;20072;-76
2022/08/25 05:54:54;;;;;;;4.53;3.10;;;;;;;;;;4997989;28;20037;-74
2022/08/25 05:57:20;;;;;;;4.82;2.60;;;;;;;;;;5003983;28;20030;-72
2022/08/25 05:59:46;;;;;;;8.52;3.55;;;;;;;;;;4998980;28;20103;-76
2022/08/25 06:04:57;;;;;;;4.18;2.90;;;;;;;;;;4996934;28;20583;-74
2022/08/25 06:07:24;;;;;;;5.15;2.80;;;;;;;;;;4998750;28;20018;-73
2022/08/25 06:09:50;;;;;;;5.50;2.55;;;;;;;;;;4997855;28;20022;-73
2022/08/25 06:12:17;;;;;;;4.93;2.80;;;;;;;;;;4997514;28;20068;-74
2022/08/25 06:14:44;;;;;;;4.20;3.03;;;;;;;;;;4997297;28;20025;-74
2022/08/25 06:17:10;;;;;;;3.83;2.63;;;;;;;;;;4997695;28;20351;-73
2022/08/25 06:19:36;;;;;;;8.55;3.00;;;;;;;;;;4997935;28;20026;-74
2022/08/25 06:22:02;;;;;;;3.85;2.67;;;;;;;;;;4998879;28;20026;-75
2022/08/25 06:24:28;;;;;;;5.68;2.85;;;;;;;;;;4989970;28;20113;-74
2022/08/25 06:26:55;;;;;;;5.80;3.00;;;;;;;;;;4998525;28;20053;-74
2022/08/25 06:29:22;;;;;;;3.42;2.70;;;;;;;;;;4997519;28;20092;-74
2022/08/25 06:31:48;;;;;;;4.15;3.10;;;;;;;;;;4999718;28;20502;-74
2022/08/25 06:34:15;;;;;;;6.93;3.60;;;;;;;;;;4999751;28;20073;-74
2022/08/25 06:36:41;;;;;;;7.10;3.22;;;;;;;;;;4997775;28;20369;-73
2022/08/25 06:39:08;;;;;;;3.72;2.97;;;;;;;;;;4982591;28;20112;-72
2022/08/25 06:41:34;;;;;;;4.18;2.50;;;;;;;;;;4994755;28;20034;-80
2022/08/25 06:44:00;;;;;;;5.60;2.60;;;;;;;;;;4996730;28;20025;-74
2022/08/25 06:46:28;;;;;;;3.00;2.50;;;;;;;;;;5002128;28;20034;-71
2022/08/25 06:48:55;;;;;;;7.18;2.92;;;;;;;;;;4997623;28;20498;-76
2022/08/25 06:51:22;;;;;;;3.20;2.35;;;;;;;;;;4993622;28;20067;-75
2022/08/25 06:53:48;;;;;;;4.13;2.92;;;;;;;;;;4998177;28;20022;-75
2022/08/25 06:56:19;;;;;;;6.40;2.45;;;;;;;;;;4996141;28;20482;-75
2022/08/25 06:58:46;;;;;;;6.00;2.72;;;;;;;;;;4991135;28;20033;-75
2022/08/25 07:01:14;;;;;;;9.60;2.90;;;;;;;;;;4996836;28;20042;-75
2022/08/25 07:03:41;;;;;;;35.83;5.28;;;;;;;;;;4997418;28;20025;-76
2022/08/25 07:06:07;;;;;;;25.75;4.45;;;;;;;;;;4993912;28;20112;-76
2022/08/25 07:08:34;;;;;;;7.13;2.75;;;;;;;;;;4992755;28;20025;-76
2022/08/25 07:11:07;;;;;;;5.88;2.63;;;;;;;;;;4995329;28;20120;-76
2022/08/25 07:13:34;;;;;;;6.18;2.50;;;;;;;;;;4994215;28;20018;-75
2022/08/25 07:16:00;;;;;;;4.32;2.78;;;;;;;;;;4997268;28;20050;-75
2022/08/25 07:18:26;;;;;;;3.47;2.45;;;;;;;;;;4998859;28;20077;-75
2022/08/25 07:20:53;;;;;;;2.83;2.40;;;;;;;;;;4996884;28;20093;-75
2022/08/25 07:23:20;;;;;;;3.50;2.47;;;;;;;;;;4999232;28;20057;-75
2022/08/25 07:25:47;;;;;;;3.42;2.10;;;;;;;;;;4999479;28;20037;-75
2022/08/25 07:28:13;;;;;;;3.38;2.47;;;;;;;;;;4994842;28;20030;-75
2022/08/25 07:30:40;;;;;;;3.60;2.15;;;;;;;;;;4998875;28;20034;-75
2022/08/25 07:33:07;;;;;;;2.72;2.03;;;;;;;;;;4990824;28;20060;-74
2022/08/25 07:35:33;;;;;;;2.78;2.20;;;;;;;;;;4992505;28;20084;-74
2022/08/25 07:37:59;;;;;;;2.45;2.25;;;;;;;;;;4995128;28;20026;-74
2022/08/25 07:40:27;;;;;;;2.55;2.15;;;;;;;;;;4992617;28;20030;-74
2022/08/25 07:42:55;;;;;;;5.78;2.08;;;;;;;;;;4996288;28;20482;-75
2022/08/25 07:45:28;;;;;;;4.57;2.70;;;;;;;;;;4995056;28;20014;-75
2022/08/25 07:47:55;;;;;;;5.70;2.42;;;;;;;;;;4995232;28;20025;-75
2022/08/25 07:50:22;;;;;;;2.70;1.92;;;;;;;;;;4995927;28;20066;-76
2022/08/25 07:52:48;;;;;;;3.08;1.77;;;;;;;;;;5000161;28;20478;-74
2022/08/25 07:55:14;;;;;;;3.22;2.00;;;;;;;;;;4975855;28;20499;-75
2022/08/25 07:57:41;;;;;;;3.30;2.22;;;;;;;;;;4995534;28;20161;-75
2022/08/25 08:00:09;;;;;;;3.88;2.03;;;;;;;;;;4994824;28;20054;-75
2022/08/25 08:02:37;;;;;;;2.97;2.20;;;;;;;;;;4998410;28;20705;-75
2022/08/25 08:05:03;;;;;;;3.20;2.22;;;;;;;;;;5000729;28;20507;-76
2022/08/25 08:07:30;;;;;;;8.88;2.90;;;;;;;;;;4994570;28;20026;-75
2022/08/25 08:09:57;;;;;;;3.58;1.73;;;;;;;;;;5001569;28;20105;-75
2022/08/25 08:12:24;;;;;;;4.57;2.33;;;;;;;;;;4998964;28;20092;-75
2022/08/25 08:14:51;;;;;;;3.22;2.20;;;;;;;;;;4996199;28;20108;-76
2022/08/25 08:17:17;;;;;;;3.45;2.08;;;;;;;;;;5001828;28;20749;-75
2022/08/25 08:19:43;;;;;;;3.17;2.10;;;;;;;;;;4999620;28;20522;-75
2022/08/25 08:22:10;;;;;;;2.15;1.70;;;;;;;;;;4994731;28;20664;-75
2022/08/25 08:24:39;;;;;;;3.88;2.17;;;;;;;;;;4995806;28;20034;-75
2022/08/25 08:27:07;;;;;;;4.70;2.30;;;;;;;;;;5002638;28;20534;-74
2022/08/25 08:29:33;;;;;;;3.63;2.10;;;;;;;;;;5002216;28;20065;-75
2022/08/25 08:32:00;;;;;;;2.78;2.05;;;;;;;;;;5001799;28;20034;-76
2022/08/25 08:34:26;;;;;;;5.32;2.33;;;;;;;;;;4997243;28;20604;-75
2022/08/25 08:36:53;;;;;;;2.95;2.30;;;;;;;;;;5003458;28;20025;-75
2022/08/25 08:39:19;;;;;;;3.00;1.88;;;;;;;;;;4983324;28;20022;-75
2022/08/25 08:42:16;;;;;;;3.60;2.45;;;;;;;;;;4994339;28;20518;-75
2022/08/25 08:44:46;;;;;;;2.67;2.28;;;;;;;;;;4996408;28;20080;-75
2022/08/25 08:47:31;;;;;;;3.75;2.30;;;;;;;;;;4985127;28;20042;-75
2022/08/25 08:50:03;;;;;;;3.63;2.60;;;;;;;;;;5003111;28;20032;-76
2022/08/25 08:52:48;;;;;;;4.38;2.60;;;;;;;;;;4996915;28;20703;-75
2022/08/25 08:55:27;;;;;;;2.38;2.03;;;;;;;;;;5002185;28;20109;-76
2022/08/25 08:57:55;;;;;;;3.72;2.10;;;;;;;;;;4996988;28;20203;-75
2022/08/25 09:00:21;;;;;;;4.22;2.70;;;;;;;;;;5002565;28;20025;-76
2022/08/25 09:02:53;;;;;;;4.43;2.22;;;;;;;;;;4996321;28;20076;-75
2022/08/25 09:05:23;;;;;;;5.28;2.55;;;;;;;;;;5001487;28;20033;-75
2022/08/25 09:08:02;;;;;;;3.58;2.30;;;;;;;;;;4998161;28;20764;-75
2022/08/25 09:10:34;;;;;;;4.13;2.30;;;;;;;;;;4993958;28;20611;-76
2022/08/25 09:13:30;;;;;;;5.40;2.45;;;;;;;;;;4995986;28;20498;-75
2022/08/25 09:18:56;;;;;;;3.80;2.20;;;;;;;;;;4996869;28;20079;-74
2022/08/25 09:21:22;;;;;;;3.25;2.15;;;;;;;;;;5001599;28;20414;-73
2022/08/25 09:23:51;;;;;;;3.42;2.03;;;;;;;;;;5000229;28;20010;-73
2022/08/25 09:26:17;;;;;;;3.70;2.40;;;;;;;;;;4997828;28;21555;-73
2022/08/25 09:28:54;;;;;;;4.13;2.60;;;;;;;;;;5000442;28;20502;-72
2022/08/25 09:31:26;;;;;;;4.22;2.35;;;;;;;;;;4996864;28;20109;-71
2022/08/25 09:33:55;;;;;;;4.93;2.60;;;;;;;;;;4996252;28;20086;-72
2022/08/25 09:36:22;;;;;;;5.22;2.38;;;;;;;;;;5002816;28;20386;-71
2022/08/25 09:38:48;;;;;;;3.83;2.50;;;;;;;;;;4998953;28;20022;-71
2022/08/25 09:41:34;;;;;;;2.55;2.30;;;;;;;;;;4995910;28;20113;-74
2022/08/25 09:44:00;;;;;;;3.47;2.17;;;;;;;;;;5000522;28;20026;-76
2022/08/25 09:46:28;;;;;;;2.65;2.30;;;;;;;;;;4998052;28;20101;-74
2022/08/25 09:48:55;;;;;;;3.75;2.55;;;;;;;;;;4995190;28;20026;-74
2022/08/25 09:51:26;;;;;;;4.32;3.20;;;;;;;;;;5000683;28;20112;-73
2022/08/25 09:53:52;;;;;;;;;;;;;;;;;;4997461;28;20045;-76
2022/08/25 09:56:20;;;;;;;4.97;3.50;;;;;;;;;;4999033;28;21118;-77
2022/08/25 09:58:46;;;;;;;7.78;3.30;;;;;;;;;;4998019;28;20061;-73
2022/08/25 10:01:17;;;;;;;5.03;3.30;;;;;;;;;;4995334;28;20065;-79
2022/08/25 10:03:56;;;;;;;5.38;3.22;;;;;;;;;;4999403;28;20076;-79
2022/08/25 10:06:23;;;;;;;6.75;3.72;;;;;;;;;;4999259;28;20026;-79
2022/08/25 10:08:50;;;;;;;4.15;3.70;;;;;;;;;;4982967;28;20033;-79
2022/08/25 10:11:31;;;;;;;5.00;3.28;;;;;;;;;;4979799;28;20064;-80
2022/08/25 10:14:03;;;;;;;3.83;3.40;;;;;;;;;;4994240;28;20021;-79
2022/08/25 10:16:31;;;;;;;3.25;2.95;;;;;;;;;;4995491;28;20029;-80
2022/08/25 10:19:11;;;;;;;4.28;3.10;;;;;;;;;;4997087;28;20022;-80
2022/08/25 10:21:42;;;;;;;5.72;3.88;;;;;;;;;;4979619;28;20545;-80
2022/08/25 10:24:09;;;;;;;;;;;;;;;;;;4998328;28;20029;-80
2022/08/25 10:26:53;;;;;;;3.42;2.97;;;;;;;;;;4997544;28;20274;-80
2022/08/25 10:29:19;;;;;;;5.43;3.17;;;;;;;;;;4996928;28;20029;-79
2022/08/25 10:31:47;;;;;;;3.60;3.13;;;;;;;;;;4994715;28;20121;-79
2022/08/25 10:34:36;;;;;;;4.18;3.05;;;;;;;;;;4982827;28;20409;-79
2022/08/25 10:37:14;;;;;;;4.25;3.08;;;;;;;;;;4998299;28;20027;-79
2022/08/25 10:39:45;;;;;;;3.80;2.72;;;;;;;;;;4992529;28;20069;-79
2022/08/25 10:42:19;;;;;;;2.90;2.53;;;;;;;;;;4997896;28;20489;-79
2022/08/25 10:47:42;;;;;;;3.38;2.80;;;;;;;;;;5001796;28;20036;-74
2022/08/25 10:50:13;;;;;;;3.40;2.83;;;;;;;;;;4995910;28;20041;-75
2022/08/25 10:52:54;;;;;;;5.50;2.85;;;;;;;;;;5001593;28;20038;-73
2022/08/25 10:55:24;;;;;;;4.15;2.83;;;;;;;;;;4995862;28;20033;-75
2022/08/25 10:58:06;;;;;;;4.13;3.08;;;;;;;;;;4996137;28;20560;-75
2022/08/25 11:00:37;;;;;;;4.40;3.13;;;;;;;;;;4996641;28;20069;-74
2022/08/25 11:03:15;;;;;;;3.97;2.92;;;;;;;;;;4996409;28;20057;-73
2022/08/25 11:05:54;;;;;;;3.47;3.17;;;;;;;;;;4994046;28;20026;-73
2022/08/25 11:08:32;;;;;;;3.13;2.80;;;;;;;;;;4979124;28;20667;-73
2022/08/25 11:11:05;;;;;;;4.10;3.33;;;;;;;;;;4995482;28;20086;-73
2022/08/25 11:13:38;;;;;;;3.10;2.80;;;;;;;;;;4995026;28;20374;-74
2022/08/25 11:16:27;;;;;;;4.22;3.00;;;;;;;;;;4997864;28;20018;-73
2022/08/25 11:18:59;;;;;;;3.28;2.83;;;;;;;;;;4999938;28;20033;-73
2022/08/25 11:21:40;;;;;;;3.78;2.88;;;;;;;;;;4997833;28;20133;-74
2022/08/25 11:24:13;;;;;;;3.55;3.17;;;;;;;;;;4996470;28;20109;-81
2022/08/25 11:26:42;;;;;;;3.50;3.20;;;;;;;;;;4995188;28;20133;-73
2022/08/25 11:29:17;;;;;;;3.83;3.25;;;;;;;;;;5000261;28;20026;-74
2022/08/25 11:31:46;;;;;;;3.80;3.30;;;;;;;;;;4993952;28;20055;-73
2022/08/25 11:34:14;;;;;;;3.47;2.90;;;;;;;;;;4994191;28;20034;-73
2022/08/25 11:36:42;;;;;;;4.32;3.70;;;;;;;;;;4995000;28;20101;-73
2022/08/25 11:39:16;;;;;;;3.53;3.00;;;;;;;;;;4994025;28;20109;-73
2022/08/25 11:41:58;;;;;;;5.80;3.67;;;;;;;;;;4993432;28;20507;-73
2022/08/25 11:44:39;;;;;;;3.65;3.03;;;;;;;;;;5001048;28;20052;-73
2022/08/25 11:47:12;;;;;;;4.60;3.13;;;;;;;;;;4996808;28;20072;-73
2022/08/25 11:49:50;;;;;;;5.20;3.78;;;;;;;;;;4994291;28;20034;-73
2022/08/25 11:52:35;;;;;;;4.63;3.60;;;;;;;;;;4993360;28;20042;-73
2022/08/25 11:55:22;;;;;;;4.45;3.78;;;;;;;;;;4973975;28;20125;-75
2022/08/25 11:57:50;;;;;;;6.30;3.60;;;;;;;;;;4991715;28;20163;-73
2022/08/25 12:00:19;;;;;;;3.70;3.22;;;;;;;;;;4989098;28;20035;-73
2022/08/25 12:02:50;;;;;;;3.72;3.30;;;;;;;;;;4993105;28;20037;-73
2022/08/25 12:05:20;;;;;;;3.47;2.90;;;;;;;;;;4993457;28;20149;-73
2022/08/25 12:08:37;;;;;;;4.20;2.85;;;;;;;;;;4992050;28;20600;-73
2022/08/25 12:10:58;;;;;;;3.45;2.80;;;;;;;;;;4988503;28;20080;-73
2022/08/25 12:13:43;;;;;;;3.35;3.05;;;;;;;;;;4986248;28;20023;-73
2022/08/25 12:16:27;;;;;;;3.17;2.88;;;;;;;;;;4983208;28;20030;-73
2022/08/25 12:19:14;;;;;;;3.28;2.60;;;;;;;;;;4986794;28;20021;-74
2022/08/25 12:21:40;;;;;;;3.20;2.80;;;;;;;;;;4985335;28;20076;-73
2022/08/25 12:24:12;;;;;;;4.18;2.80;;;;;;;;;;4981368;28;20273;-73
2022/08/25 12:26:44;;;;;;;3.40;2.88;;;;;;;;;;4988561;28;20025;-73
2022/08/25 12:29:37;;;;;;;3.33;2.88;;;;;;;;;;4988299;28;20165;-73
2022/08/25 12:32:14;;;;;;;3.90;3.40;;;;;;;;;;4959902;28;20049;-74
2022/08/25 12:34:58;;;;;;;3.10;2.80;;;;;;;;;;4987406;28;20049;-73
2022/08/25 12:37:25;;;;;;;3.97;3.20;;;;;;;;;;4986127;28;20330;-74
2022/08/25 12:39:51;;;;;;;5.65;3.17;;;;;;;;;;4986976;28;20022;-74
2022/08/25 12:42:21;;;;;;;3.15;2.85;;;;;;;;;;4985689;28;20022;-74
2022/08/25 12:45:07;;;;;;;3.60;2.85;;;;;;;;;;4988469;28;20037;-74
2022/08/25 12:47:34;;;;;;;3.78;3.00;;;;;;;;;;4987758;28;20037;-77
2022/08/25 12:50:18;;;;;;;4.15;2.85;;;;;;;;;;4988738;28;20451;-74
2022/08/25 12:52:45;;;;;;;5.28;3.55;;;;;;;;;;4988369;28;20125;-73
2022/08/25 12:55:12;;;;;;;3.20;2.90;;;;;;;;;;4988055;28;20033;-75
2022/08/25 12:57:41;;;;;;;4.72;3.50;;;;;;;;;;4994258;28;20201;-73
2022/08/25 13:00:15;;;;;;;3.90;3.30;;;;;;;;;;4992777;28;20370;-73
2022/08/25 13:02:41;;;;;;;7.30;2.92;;;;;;;;;;4992383;28;20048;-73
2022/08/25 13:05:22;;;;;;;5.07;3.03;;;;;;;;;;4992546;28;20693;-73
2022/08/25 13:08:08;;;;;;;6.80;3.30;;;;;;;;;;4992306;28;20057;-73
2022/08/25 13:10:34;;;;;;;3.42;3.00;;;;;;;;;;4988184;28;20037;-73
2022/08/25 13:13:15;;;;;;;4.22;2.90;;;;;;;;;;4993178;28;20065;-73
2022/08/25 13:15:57;;;;;;;3.70;2.83;;;;;;;;;;4993017;28;20105;-75
2022/08/25 13:18:31;;;;;;;3.45;2.75;;;;;;;;;;4989477;28;20116;-74
2022/08/25 13:21:07;;;;;;;6.95;3.20;;;;;;;;;;4990576;28;20769;-73
2022/08/25 13:23:36;;;;;;;3.28;2.97;;;;;;;;;;4995588;28;20176;-76
2022/08/25 13:26:02;;;;;;;3.97;2.72;;;;;;;;;;4990189;28;20556;-74
2022/08/25 13:28:35;;;;;;;4.05;3.20;;;;;;;;;;4978001;28;20117;-74
2022/08/25 13:31:06;;;;;;;4.25;3.05;;;;;;;;;;4993382;28;20848;-74
2022/08/25 13:33:32;;;;;;;;;;;;;;;;;;4995094;28;20084;-73
2022/08/25 13:38:45;;;;;;;4.55;3.10;;;;;;;;;;4993930;28;20749;-75
2022/08/25 13:41:16;;;;;;;6.00;3.67;;;;;;;;;;4995457;28;20052;-74
2022/08/25 13:43:42;;;;;;;6.72;3.00;;;;;;;;;;4994226;28;20120;-73
2022/08/25 13:46:08;;;;;;;3.55;3.25;;;;;;;;;;4989637;28;20026;-73
2022/08/25 13:48:36;;;;;;;3.33;3.03;;;;;;;;;;4992402;28;20248;-74
2022/08/25 13:51:07;;;;;;;4.00;3.00;;;;;;;;;;4995152;28;20360;-74
2022/08/25 13:53:34;;;;;;;4.00;3.28;;;;;;;;;;4989943;28;20018;-74
2022/08/25 13:56:01;;;;;;;4.90;3.28;;;;;;;;;;4993145;28;20105;-73
2022/08/25 13:58:32;;;;;;;3.55;3.13;;;;;;;;;;4988066;28;20054;-73
2022/08/25 14:01:19;;;;;;;3.33;2.60;;;;;;;;;;4991856;28;20065;-73
2022/08/25 14:03:46;;;;;;;3.40;3.03;;;;;;;;;;4987516;28;20112;-73
2022/08/25 14:06:15;;;;;;;4.10;3.13;;;;;;;;;;4988498;28;20056;-74
2022/08/25 14:08:42;;;;;;;4.03;2.72;;;;;;;;;;4983145;28;20026;-73
2022/08/25 14:11:17;;;;;;;3.60;3.17;;;;;;;;;;4987495;28;20018;-73
2022/08/25 14:13:44;;;;;;;4.25;3.42;;;;;;;;;;4985803;28;20087;-73
2022/08/25 14:16:22;;;;;;;4.53;3.30;;;;;;;;;;4986737;28;20014;-73
2022/08/25 14:18:49;;;;;;;3.40;3.10;;;;;;;;;;4990430;28;20030;-74
2022/08/25 14:21:16;;;;;;;4.22;2.95;;;;;;;;;;4987888;28;20084;-74
2022/08/25 14:23:42;;;;;;;4.00;3.17;;;;;;;;;;4988067;28;20030;-73
2022/08/25 14:26:09;;;;;;;9.30;3.75;;;;;;;;;;4985254;28;20030;-73
2022/08/25 14:28:35;;;;;;;5.88;3.72;;;;;;;;;;4988621;28;20056;-73
2022/08/25 14:31:22;;;;;;;4.35;3.30;;;;;;;;;;4986332;28;20056;-73
2022/08/25 14:33:53;;;;;;;4.63;3.30;;;;;;;;;;4985302;28;20026;-74
2022/08/25 14:36:19;;;;;;;;;;;;;;;;;;4993679;28;20061;-73
2022/08/25 14:38:45;;;;;;;3.85;3.45;;;;;;;;;;4995536;28;19956;-73
2022/08/25 14:41:12;;;;;;;5.55;3.70;;;;;;;;;;4990265;28;20762;-73
2022/08/25 14:43:38;;;;;;;6.63;3.53;;;;;;;;;;4995885;28;20045;-73
2022/08/25 14:46:08;;;;;;;6.10;3.95;;;;;;;;;;4989547;28;20022;-74
2022/08/25 14:48:38;;;;;;;3.97;3.20;;;;;;;;;;4977225;28;20030;-73
2022/08/25 14:51:05;;;;;;;5.95;3.78;;;;;;;;;;4996264;28;20649;-74
2022/08/25 14:53:32;;;;;;;3.70;3.08;;;;;;;;;;4993481;28;20141;-74
2022/08/25 14:55:58;;;;;;;5.20;3.35;;;;;;;;;;4993708;28;20086;-73
2022/08/25 14:58:24;;;;;;;4.50;3.30;;;;;;;;;;4996992;28;20554;-73
2022/08/25 15:00:51;;;;;;;4.05;3.55;;;;;;;;;;4997235;28;20300;-74
2022/08/25 15:03:20;;;;;;;5.03;3.60;;;;;;;;;;4995404;28;20545;-74
2022/08/25 15:05:46;;;;;;;5.43;3.53;;;;;;;;;;4992738;28;20105;-73
2022/08/25 15:10:57;;;;;;;7.78;4.05;;;;;;;;;;4987057;28;20049;-74
2022/08/25 15:13:25;;;;;;;5.55;3.78;;;;;;;;;;4993013;28;20025;-74